Time;durP1;ratioP1;P1;durP2;ratioP2;P2;SDS_P1;SDS_P2;PMS_P1;PMS_P2;Temp;Humidity;BMP_temperature;BMP_pressure;BME280_temperature;BME280_humidity;BME280_pressure;Samples;Min_cycle;Max_cycle;Signal;HPM_P1;HPM_P2
2023/09/02 00:00:38;;;;;;;29.47;26.70;;;15.00;1.00;;;;;;5044589;28;21333;-75
2023/09/02 00:03:05;;;;;;;30.20;27.10;;;15.10;1.00;;;;;;5043557;28;20556;-75
2023/09/02 00:05:35;;;;;;;31.17;28.47;;;15.00;1.00;;;;;;5047956;28;20553;-76
2023/09/02 00:08:02;;;;;;;31.80;29.20;;;15.00;1.00;;;;;;5049093;28;20451;-76
2023/09/02 00:10:29;;;;;;;30.40;27.40;;;15.00;1.00;;;;;;5046613;28;21249;-76
2023/09/02 00:12:56;;;;;;;32.20;29.20;;;15.00;1.00;;;;;;5045150;28;20983;-76
2023/09/02 00:15:23;;;;;;;31.37;28.47;;;15.00;1.00;;;;;;5043900;28;20464;-76
2023/09/02 00:17:50;;;;;;;33.37;29.83;;;14.90;1.00;;;;;;5042870;28;21175;-76
2023/09/02 00:20:17;;;;;;;31.77;28.77;;;15.00;1.00;;;;;;5047749;28;20645;-76
2023/09/02 00:22:46;;;;;;;32.20;29.13;;;15.00;1.00;;;;;;5067788;28;20462;-76
2023/09/02 00:25:13;;;;;;;32.83;29.90;;;14.90;1.00;;;;;;5051947;28;20554;-77
2023/09/02 00:27:40;;;;;;;32.60;29.50;;;14.90;1.00;;;;;;5049917;28;20479;-76
2023/09/02 00:30:11;;;;;;;34.37;31.03;;;14.90;1.00;;;;;;5064200;28;20510;-75
2023/09/02 00:32:37;;;;;;;32.73;29.80;;;14.80;1.00;;;;;;5061195;28;20988;-77
2023/09/02 00:35:06;;;;;;;32.17;29.10;;;14.80;1.00;;;;;;5062485;28;20558;-75
2023/09/02 00:37:33;;;;;;;33.03;29.80;;;14.90;1.00;;;;;;5057074;28;20495;-76
2023/09/02 00:40:01;;;;;;;34.37;30.83;;;14.80;1.00;;;;;;5044556;28;20484;-76
2023/09/02 00:42:31;;;;;;;32.07;29.13;;;14.80;1.00;;;;;;5043117;28;20455;-76
2023/09/02 00:44:58;;;;;;;32.50;29.47;;;14.70;1.00;;;;;;5045581;28;20487;-76
2023/09/02 00:47:25;;;;;;;33.83;30.83;;;14.70;1.00;;;;;;5044094;28;20940;-76
2023/09/02 00:49:52;;;;;;;32.20;29.30;;;14.60;1.00;;;;;;5040474;28;20519;-76
2023/09/02 00:52:19;;;;;;;32.10;29.17;;;14.60;1.00;;;;;;5044415;28;20546;-75
2023/09/02 00:54:46;;;;;;;32.47;29.37;;;14.60;1.00;;;;;;5039144;28;20512;-76
2023/09/02 00:57:17;;;;;;;33.43;30.30;;;14.50;1.00;;;;;;5046194;28;20551;-75
2023/09/02 00:59:44;;;;;;;32.50;29.60;;;14.40;1.00;;;;;;5048447;28;20497;-77
2023/09/02 01:02:12;;;;;;;30.63;27.93;;;14.50;1.00;;;;;;5052281;28;20523;-76
2023/09/02 01:04:39;;;;;;;30.30;27.70;;;14.40;1.00;;;;;;5068671;22;20423;-77
2023/09/02 01:07:06;;;;;;;32.93;29.87;;;14.40;1.00;;;;;;5071116;28;20454;-78
2023/09/02 01:09:33;;;;;;;32.40;29.10;;;14.40;1.00;;;;;;5067038;28;20502;-70
2023/09/02 01:12:00;;;;;;;32.63;29.37;;;14.30;1.00;;;;;;5069156;28;21008;-72
2023/09/02 01:14:29;;;;;;;29.80;27.30;;;14.30;1.00;;;;;;5053273;28;20466;-71
2023/09/02 01:16:56;;;;;;;31.50;28.60;;;14.30;1.00;;;;;;5070466;28;20545;-71
2023/09/02 01:19:23;;;;;;;31.10;28.17;;;14.30;1.00;;;;;;5072166;28;20478;-72
2023/09/02 01:22:29;;;;;;;31.00;28.17;;;14.30;1.00;;;;;;5078272;28;20542;-74
2023/09/02 01:25:12;;;;;;;29.77;27.17;;;14.30;1.00;;;;;;5086516;28;20599;-72
2023/09/02 01:27:44;;;;;;;27.47;24.97;;;14.20;1.00;;;;;;5087607;28;20679;-72
2023/09/02 01:30:15;;;;;;;27.13;24.63;;;14.20;1.00;;;;;;5089705;28;20473;-73
2023/09/02 01:32:44;;;;;;;27.60;25.03;;;14.20;1.00;;;;;;5090600;28;20485;-72
2023/09/02 01:35:16;;;;;;;29.53;26.97;;;14.30;1.00;;;;;;5092399;28;20453;-75
2023/09/02 01:37:45;;;;;;;27.97;25.27;;;14.30;1.00;;;;;;5090583;28;20504;-73
2023/09/02 01:40:21;;;;;;;28.83;26.33;;;14.30;1.00;;;;;;5085972;28;20663;-73
2023/09/02 01:42:50;;;;;;;27.00;24.70;;;14.30;1.00;;;;;;5084074;28;20472;-72
2023/09/02 01:45:19;;;;;;;26.43;24.00;;;14.30;1.00;;;;;;5089976;28;20550;-72
2023/09/02 01:47:47;;;;;;;25.80;23.50;;;14.30;1.00;;;;;;5086496;28;20461;-73
2023/09/02 01:50:16;;;;;;;25.13;22.93;;;14.30;1.00;;;;;;5085420;28;20472;-76
2023/09/02 01:52:44;;;;;;;25.80;23.10;;;14.20;1.00;;;;;;5091801;28;20477;-72
2023/09/02 01:55:12;;;;;;;27.47;24.90;;;14.10;1.00;;;;;;5083452;28;20528;-71
2023/09/02 01:57:39;;;;;;;27.97;25.50;;;14.10;1.00;;;;;;5085574;28;20516;-71
2023/09/02 02:00:09;;;;;;;23.17;20.97;;;14.00;1.00;;;;;;5084190;28;20537;-72
2023/09/02 02:02:38;;;;;;;23.17;21.07;;;14.00;1.00;;;;;;5089722;28;20471;-71
2023/09/02 02:05:08;;;;;;;22.20;20.20;;;14.00;1.00;;;;;;5084207;28;20472;-71
2023/09/02 02:07:38;;;;;;;24.13;22.03;;;14.00;1.00;;;;;;5085859;28;20963;-71
2023/09/02 02:10:08;;;;;;;27.37;24.77;;;14.00;1.00;;;;;;5086866;28;20583;-73
2023/09/02 02:12:36;;;;;;;25.53;23.00;;;14.00;1.00;;;;;;5089361;28;20534;-71
2023/09/02 02:15:04;;;;;;;23.57;21.33;;;14.00;1.00;;;;;;5086325;28;20473;-72
2023/09/02 02:17:33;;;;;;;22.37;20.20;;;14.00;1.00;;;;;;5087145;28;20475;-71
2023/09/02 02:20:01;;;;;;;23.80;21.60;;;14.00;1.00;;;;;;5087461;28;20854;-72
2023/09/02 02:22:28;;;;;;;26.13;22.47;;;14.00;1.00;;;;;;5086084;28;20461;-72
2023/09/02 02:24:55;;;;;;;25.00;22.77;;;13.90;1.00;;;;;;5086929;28;20548;-71
2023/09/02 02:27:22;;;;;;;22.93;20.80;;;13.90;1.00;;;;;;5082363;28;20524;-72
2023/09/02 02:29:49;;;;;;;25.33;22.83;;;13.80;1.00;;;;;;5083459;27;20465;-73
2023/09/02 02:32:16;;;;;;;22.80;20.80;;;13.80;1.00;;;;;;5085560;28;20505;-72
2023/09/02 02:34:44;;;;;;;22.57;20.60;;;13.90;1.00;;;;;;5086193;28;20565;-72
2023/09/02 02:37:11;;;;;;;23.17;20.97;;;13.90;1.00;;;;;;5083727;28;20562;-72
2023/09/02 02:39:38;;;;;;;25.23;22.73;;;13.90;1.00;;;;;;5083649;28;21043;-72
2023/09/02 02:42:05;;;;;;;21.87;19.90;;;13.80;1.00;;;;;;5085452;28;21019;-72
2023/09/02 02:44:34;;;;;;;25.27;22.60;;;13.80;1.00;;;;;;5087459;28;20489;-73
2023/09/02 02:47:01;;;;;;;22.23;20.43;;;13.80;1.00;;;;;;5089219;28;21221;-72
2023/09/02 02:49:28;;;;;;;22.77;20.57;;;13.80;1.00;;;;;;5089704;28;20509;-73
2023/09/02 02:51:56;;;;;;;22.63;20.53;;;13.70;1.00;;;;;;5089892;28;20534;-72
2023/09/02 02:54:24;;;;;;;22.90;20.90;;;13.70;1.00;;;;;;5086944;28;20464;-73
2023/09/02 02:56:50;;;;;;;21.57;19.77;;;13.70;1.00;;;;;;5087843;28;20445;-73
2023/09/02 02:59:18;;;;;;;22.53;20.23;;;13.70;1.00;;;;;;5086928;28;20472;-71
2023/09/02 03:01:45;;;;;;;22.40;20.20;;;13.60;1.00;;;;;;5084164;28;21965;-72
2023/09/02 03:04:13;;;;;;;23.27;20.87;;;13.60;1.00;;;;;;5087388;28;20909;-72
2023/09/02 03:06:40;;;;;;;23.97;21.97;;;13.60;1.00;;;;;;5090467;28;20457;-73
2023/09/02 03:09:08;;;;;;;25.20;22.90;;;13.50;1.00;;;;;;5086512;28;20464;-73
2023/09/02 03:11:35;;;;;;;22.80;20.77;;;13.50;1.00;;;;;;5088141;28;20436;-71
2023/09/02 03:14:02;;;;;;;23.13;21.03;;;13.50;1.00;;;;;;5088915;28;20491;-71
2023/09/02 03:16:29;;;;;;;22.80;20.60;;;13.50;1.00;;;;;;5084647;28;20991;-72
2023/09/02 03:18:56;;;;;;;21.97;19.70;;;13.50;1.00;;;;;;5084887;28;20559;-74
2023/09/02 03:21:23;;;;;;;22.47;20.37;;;13.50;1.00;;;;;;5085371;28;20482;-74
2023/09/02 03:23:50;;;;;;;21.60;19.77;;;13.60;1.00;;;;;;5084209;28;20566;-72
2023/09/02 03:26:19;;;;;;;21.80;19.90;;;13.60;1.00;;;;;;5086066;28;20493;-71
2023/09/02 03:28:46;;;;;;;21.57;19.67;;;13.60;1.00;;;;;;5088717;28;20478;-72
2023/09/02 03:31:13;;;;;;;21.20;19.30;;;13.60;1.00;;;;;;5090158;28;20457;-72
2023/09/02 03:33:40;;;;;;;20.97;19.17;;;13.60;1.00;;;;;;5084263;28;20496;-75
2023/09/02 03:36:07;;;;;;;24.23;22.23;;;13.60;1.00;;;;;;5088147;28;20504;-72
2023/09/02 03:38:34;;;;;;;21.90;19.77;;;13.60;1.00;;;;;;5086550;28;20565;-72
2023/09/02 03:41:01;;;;;;;23.03;20.93;;;13.70;1.00;;;;;;5089289;28;20577;-72
2023/09/02 03:43:29;;;;;;;21.63;19.83;;;13.70;1.00;;;;;;5084585;28;20551;-73
2023/09/02 03:45:58;;;;;;;21.40;19.50;;;13.80;1.00;;;;;;5083438;28;20531;-72
2023/09/02 03:48:24;;;;;;;21.40;19.50;;;13.80;1.00;;;;;;5084792;28;20479;-71
2023/09/02 03:51:03;;;;;;;22.03;19.93;;;13.80;1.00;;;;;;5084383;28;20466;-72
2023/09/02 03:53:30;;;;;;;23.13;20.70;;;13.80;1.00;;;;;;5088581;28;20464;-72
2023/09/02 03:55:57;;;;;;;21.67;19.80;;;13.70;1.00;;;;;;5087767;28;20471;-72
2023/09/02 03:58:24;;;;;;;23.50;21.20;;;13.70;1.00;;;;;;5088157;28;20573;-72
2023/09/02 04:00:53;;;;;;;20.90;19.10;;;13.60;1.00;;;;;;5088042;28;20551;-71
2023/09/02 04:03:21;;;;;;;20.63;18.90;;;13.60;1.00;;;;;;5084796;28;20448;-72
2023/09/02 04:05:48;;;;;;;21.73;19.93;;;13.50;1.00;;;;;;5081842;28;20481;-73
2023/09/02 04:08:22;;;;;;;22.70;20.47;;;13.40;1.00;;;;;;5088201;28;20489;-71
2023/09/02 04:10:52;;;;;;;21.60;19.73;;;13.40;1.00;;;;;;5086989;28;20449;-73
2023/09/02 04:13:19;;;;;;;22.10;20.20;;;13.40;1.00;;;;;;5084231;28;20456;-72
2023/09/02 04:15:46;;;;;;;21.67;19.63;;;13.30;1.00;;;;;;5083757;28;20845;-72
2023/09/02 04:18:15;;;;;;;21.63;19.60;;;13.30;1.00;;;;;;5084709;28;20550;-71
2023/09/02 04:20:42;;;;;;;22.47;20.37;;;13.30;1.00;;;;;;5087611;28;20544;-71
2023/09/02 04:23:09;;;;;;;22.23;20.17;;;13.30;1.00;;;;;;5084341;28;20460;-71
2023/09/02 04:25:48;;;;;;;21.83;19.73;;;13.30;1.00;;;;;;5088292;28;20488;-71
2023/09/02 04:28:15;;;;;;;22.50;20.33;;;13.30;1.00;;;;;;5081402;28;20557;-73
2023/09/02 04:30:43;;;;;;;20.70;19.00;;;13.30;1.00;;;;;;5083043;28;20537;-70
2023/09/02 04:33:10;;;;;;;20.90;19.13;;;13.30;1.00;;;;;;5088218;28;20437;-73
2023/09/02 04:35:39;;;;;;;22.47;20.27;;;13.40;1.00;;;;;;5084613;28;20494;-71
2023/09/02 04:38:06;;;;;;;21.57;19.80;;;13.40;1.00;;;;;;5085889;28;20472;-71
2023/09/02 04:40:36;;;;;;;25.37;22.87;;;13.40;1.00;;;;;;5085234;28;20998;-71
2023/09/02 04:43:04;;;;;;;22.67;20.57;;;13.40;1.00;;;;;;5085930;28;20471;-70
2023/09/02 04:45:32;;;;;;;22.03;20.13;;;13.40;1.00;;;;;;5082495;28;20466;-74
2023/09/02 04:47:59;;;;;;;22.20;20.30;;;13.40;1.00;;;;;;5081185;28;20468;-72
2023/09/02 04:50:26;;;;;;;21.93;19.83;;;13.40;1.00;;;;;;5085320;28;20542;-71
2023/09/02 04:52:56;;;;;;;20.80;18.93;;;13.40;1.00;;;;;;5084158;28;20456;-72
2023/09/02 04:55:24;;;;;;;22.10;20.00;;;13.50;1.00;;;;;;5083281;28;21226;-71
2023/09/02 04:57:52;;;;;;;22.60;20.50;;;13.50;1.00;;;;;;5083919;28;20534;-71
2023/09/02 05:00:19;;;;;;;21.00;19.20;;;13.50;1.00;;;;;;5086017;28;20468;-73
2023/09/02 05:02:46;;;;;;;21.23;19.33;;;13.50;1.00;;;;;;5086576;28;20513;-72
2023/09/02 05:05:14;;;;;;;22.30;20.30;;;13.60;1.00;;;;;;5084330;28;20544;-75
2023/09/02 05:07:41;;;;;;;20.60;18.80;;;13.60;1.00;;;;;;5084549;28;21172;-71
2023/09/02 05:10:10;;;;;;;22.10;20.13;;;13.60;1.00;;;;;;5085046;28;20942;-73
2023/09/02 05:12:37;;;;;;;22.30;20.10;;;13.60;1.00;;;;;;5085745;28;20498;-73
2023/09/02 05:15:04;;;;;;;21.47;19.67;;;13.60;1.00;;;;;;5085327;28;20558;-72
2023/09/02 05:17:32;;;;;;;22.00;20.00;;;13.70;1.00;;;;;;5088171;28;20475;-71
2023/09/02 05:19:59;;;;;;;20.60;18.80;;;13.70;1.00;;;;;;5086667;28;20463;-72
2023/09/02 05:22:26;;;;;;;22.03;20.03;;;13.80;1.00;;;;;;5083515;28;20479;-72
2023/09/02 05:24:53;;;;;;;23.13;21.00;;;13.80;1.00;;;;;;5085179;28;20472;-72
2023/09/02 05:27:22;;;;;;;21.37;19.50;;;13.80;1.00;;;;;;5081997;28;20459;-74
2023/09/02 05:29:49;;;;;;;21.77;19.87;;;13.90;1.00;;;;;;5080951;28;21098;-72
2023/09/02 05:32:17;;;;;;;22.27;20.27;;;14.00;1.00;;;;;;5084925;28;20523;-72
2023/09/02 05:34:44;;;;;;;20.27;18.47;;;14.00;1.00;;;;;;5085503;28;20825;-72
2023/09/02 05:37:11;;;;;;;22.77;20.67;;;14.10;1.00;;;;;;5083803;28;20981;-71
2023/09/02 05:39:38;;;;;;;21.50;19.57;;;14.20;1.00;;;;;;5092153;28;20466;-71
2023/09/02 05:42:05;;;;;;;22.33;20.43;;;14.30;1.00;;;;;;5087469;28;20431;-71
2023/09/02 05:44:35;;;;;;;21.83;19.93;;;14.40;1.00;;;;;;5089850;28;20572;-72
2023/09/02 05:47:02;;;;;;;21.83;20.00;;;14.50;1.00;;;;;;5085521;28;20549;-74
2023/09/02 05:49:30;;;;;;;22.60;20.50;;;14.60;1.00;;;;;;5087120;27;20956;-72
2023/09/02 05:51:57;;;;;;;23.77;21.67;;;14.60;1.00;;;;;;5086418;28;20481;-73
2023/09/02 05:54:24;;;;;;;26.73;24.37;;;14.80;1.00;;;;;;5089944;28;20834;-73
2023/09/02 05:56:51;;;;;;;28.73;26.30;;;14.80;1.00;;;;;;5088979;28;20474;-72
2023/09/02 05:59:18;;;;;;;29.77;27.13;;;15.00;1.00;;;;;;5088012;28;20554;-71
2023/09/02 06:01:46;;;;;;;28.27;25.57;;;15.10;1.00;;;;;;5090927;28;20488;-71
2023/09/02 06:04:13;;;;;;;27.33;24.80;;;15.20;1.00;;;;;;5087274;28;20496;-71
2023/09/02 06:06:40;;;;;;;27.10;24.77;;;15.30;1.00;;;;;;5088083;28;20512;-72
2023/09/02 06:09:09;;;;;;;27.57;25.00;;;15.40;1.00;;;;;;5089542;28;20988;-72
2023/09/02 06:11:36;;;;;;;24.63;22.63;;;15.50;1.00;;;;;;5090682;28;20972;-70
2023/09/02 06:14:03;;;;;;;23.83;21.83;;;15.70;1.00;;;;;;5084844;28;20542;-71
2023/09/02 06:16:29;;;;;;;25.20;23.03;;;15.80;1.00;;;;;;5089766;28;20513;-73
2023/09/02 06:18:58;;;;;;;25.07;22.67;;;15.90;1.00;;;;;;5088038;28;20870;-72
2023/09/02 06:21:25;;;;;;;25.17;23.07;;;16.00;1.00;;;;;;5092376;28;20455;-72
2023/09/02 06:23:52;;;;;;;25.43;23.23;;;16.10;1.00;;;;;;5085554;28;20553;-72
2023/09/02 06:26:19;;;;;;;26.27;23.60;;;16.20;1.00;;;;;;5086794;28;20580;-71
2023/09/02 06:28:46;;;;;;;24.87;22.57;;;16.20;1.00;;;;;;5086837;28;20493;-73
2023/09/02 06:31:14;;;;;;;25.83;23.73;;;16.30;1.00;;;;;;5087081;28;20597;-72
2023/09/02 06:33:40;;;;;;;26.00;23.80;;;16.40;1.00;;;;;;5084205;28;20546;-72
2023/09/02 06:36:13;;;;;;;27.13;24.30;;;16.60;1.00;;;;;;5083837;28;21004;-73
2023/09/02 06:38:40;;;;;;;25.17;22.87;;;16.70;1.00;;;;;;5085143;28;20528;-74
2023/09/02 06:41:11;;;;;;;26.00;23.70;;;16.70;1.00;;;;;;5084609;28;20541;-72
2023/09/02 06:43:38;;;;;;;24.60;22.40;;;16.80;1.00;;;;;;5087894;28;20465;-72
2023/09/02 06:46:12;;;;;;;24.20;21.93;;;16.80;1.00;;;;;;5088936;28;20493;-71
2023/09/02 06:48:39;;;;;;;24.00;21.80;;;17.00;1.00;;;;;;5086300;28;20499;-71
2023/09/02 06:51:06;;;;;;;25.73;23.33;;;17.10;1.00;;;;;;5088912;28;20465;-72
2023/09/02 06:53:34;;;;;;;24.30;22.03;;;17.20;1.00;;;;;;5083200;28;20564;-73
2023/09/02 06:56:02;;;;;;;24.10;21.77;;;17.30;1.00;;;;;;5086941;28;20554;-74
2023/09/02 06:58:29;;;;;;;24.03;21.80;;;17.40;1.00;;;;;;5087109;28;20477;-71
2023/09/02 07:00:56;;;;;;;21.77;19.67;;;17.50;1.00;;;;;;5088307;28;20956;-72
2023/09/02 07:03:23;;;;;;;22.17;20.30;;;17.60;1.00;;;;;;5084464;28;20462;-73
2023/09/02 07:05:49;;;;;;;21.93;19.87;;;17.70;1.00;;;;;;5086691;28;20568;-73
2023/09/02 07:08:17;;;;;;;21.83;20.00;;;17.80;1.00;;;;;;5087675;28;20461;-71
2023/09/02 07:10:46;;;;;;;21.37;19.37;;;18.00;1.00;;;;;;5086143;28;20478;-72
2023/09/02 07:13:13;;;;;;;21.63;19.60;;;18.20;1.00;;;;;;5087163;28;20483;-72
2023/09/02 07:15:40;;;;;;;20.77;18.80;;;18.30;1.00;;;;;;5087609;28;20535;-74
2023/09/02 07:18:07;;;;;;;20.20;18.10;;;18.40;1.00;;;;;;5088383;28;20476;-72
2023/09/02 07:20:37;;;;;;;21.77;19.67;;;18.50;1.00;;;;;;5087737;27;20459;-74
2023/09/02 07:23:04;;;;;;;19.90;17.97;;;18.50;1.00;;;;;;5086447;28;20515;-71
2023/09/02 07:25:31;;;;;;;19.77;18.00;;;18.60;1.00;;;;;;5083495;28;21162;-71
2023/09/02 07:27:59;;;;;;;17.50;15.90;;;18.60;1.00;;;;;;5083380;28;20468;-72
2023/09/02 07:30:26;;;;;;;18.23;16.50;;;18.60;1.00;;;;;;5088018;28;20503;-71
2023/09/02 07:32:53;;;;;;;15.97;14.57;;;18.70;1.00;;;;;;5084312;28;21884;-72
2023/09/02 07:35:20;;;;;;;16.30;14.77;;;18.80;1.00;;;;;;5086329;28;20530;-72
2023/09/02 07:37:47;;;;;;;14.60;13.20;;;19.00;1.00;;;;;;5087708;28;20456;-71
2023/09/02 07:40:14;;;;;;;14.47;13.00;;;19.00;1.00;;;;;;5086691;28;20536;-72
2023/09/02 07:42:41;;;;;;;13.77;12.60;;;19.20;1.00;;;;;;5086118;28;20540;-74
2023/09/02 07:45:11;;;;;;;11.60;10.60;;;19.40;1.00;;;;;;5082776;28;20541;-71
2023/09/02 07:47:38;;;;;;;11.57;10.60;;;19.60;1.00;;;;;;5084544;28;20551;-72
2023/09/02 07:50:06;;;;;;;9.23;8.43;;;19.60;1.00;;;;;;5083336;28;20517;-74
2023/09/02 07:52:33;;;;;;;8.37;7.67;;;19.60;1.00;;;;;;5083940;28;20953;-72
2023/09/02 07:55:00;;;;;;;10.77;7.60;;;19.60;1.00;;;;;;5086642;28;20497;-72
2023/09/02 07:57:27;;;;;;;10.73;8.57;;;19.60;1.00;;;;;;5084560;28;20485;-71
2023/09/02 07:59:54;;;;;;;7.70;6.90;;;19.70;1.00;;;;;;5084532;28;20514;-71
2023/09/02 08:02:22;;;;;;;8.47;7.57;;;19.80;1.00;;;;;;5085959;28;20468;-72
2023/09/02 08:04:50;;;;;;;10.00;9.10;;;19.90;1.00;;;;;;5084438;28;20462;-73
2023/09/02 08:07:17;;;;;;;7.33;6.67;;;20.00;1.00;;;;;;5084077;28;20519;-71
2023/09/02 08:09:44;;;;;;;7.00;6.43;;;20.10;1.00;;;;;;5086625;27;20474;-72
2023/09/02 08:12:12;;;;;;;8.53;6.70;;;20.30;1.00;;;;;;5084550;28;20462;-70
2023/09/02 08:14:39;;;;;;;7.43;6.77;;;20.50;1.00;;;;;;5081959;28;20916;-71
2023/09/02 08:17:05;;;;;;;7.43;6.67;;;20.60;1.00;;;;;;5083644;28;20864;-72
2023/09/02 08:19:34;;;;;;;7.40;6.70;;;20.70;1.00;;;;;;5083761;28;20459;-74
2023/09/02 08:22:01;;;;;;;8.33;7.43;;;20.70;1.00;;;;;;5086323;28;21679;-71
2023/09/02 08:24:28;;;;;;;8.80;7.23;;;20.80;1.00;;;;;;5084068;28;20560;-72
2023/09/02 08:26:54;;;;;;;7.23;6.73;;;20.90;1.00;;;;;;5081301;28;20906;-74
2023/09/02 08:29:21;;;;;;;7.83;7.03;;;21.00;1.00;;;;;;5081302;28;20457;-72
2023/09/02 08:31:53;;;;;;;9.13;7.63;;;21.10;1.00;;;;;;5082260;28;20458;-72
2023/09/02 08:34:20;;;;;;;7.00;6.30;;;21.20;1.00;;;;;;5085431;28;21013;-73
2023/09/02 08:36:48;;;;;;;9.63;7.70;;;21.30;1.00;;;;;;5081512;28;20470;-73
2023/09/02 08:39:15;;;;;;;7.30;6.70;;;21.30;1.00;;;;;;5086701;28;21046;-72
2023/09/02 08:41:44;;;;;;;6.97;6.27;;;21.40;1.00;;;;;;5087187;28;20587;-71
2023/09/02 08:44:12;;;;;;;7.00;6.37;;;21.50;1.00;;;;;;5087349;28;21373;-71
2023/09/02 08:46:44;;;;;;;9.67;8.17;;;21.60;1.00;;;;;;5083712;28;20497;-74
2023/09/02 08:49:12;;;;;;;7.70;6.97;;;21.70;1.00;;;;;;5087730;28;20609;-72
2023/09/02 08:51:40;;;;;;;9.43;4.97;;;21.70;1.00;;;;;;5086740;28;20485;-74
2023/09/02 08:54:10;;;;;;;5.50;4.97;;;21.90;1.00;;;;;;5085833;28;20993;-72
2023/09/02 08:56:40;;;;;;;6.03;5.47;;;22.00;1.00;;;;;;5085219;28;20480;-72
2023/09/02 08:59:09;;;;;;;5.83;5.33;;;22.10;1.00;;;;;;5087771;28;20466;-71
2023/09/02 09:01:41;;;;;;;6.20;5.70;;;22.20;1.00;;;;;;5084638;28;20462;-72
2023/09/02 09:04:08;;;;;;;6.37;5.77;;;22.30;1.00;;;;;;5082434;28;20846;-70
2023/09/02 09:06:37;;;;;;;6.60;6.00;;;22.40;1.00;;;;;;5085133;28;20547;-72
2023/09/02 09:09:07;;;;;;;6.20;5.60;;;22.50;1.00;;;;;;5081268;28;20499;-72
2023/09/02 09:11:37;;;;;;;7.30;6.60;;;22.50;1.00;;;;;;5084457;28;20482;-74
2023/09/02 09:14:10;;;;;;;7.37;5.00;;;22.60;1.00;;;;;;5085539;28;20586;-72
2023/09/02 09:16:38;;;;;;;6.00;5.27;;;22.70;1.00;;;;;;5089728;28;20545;-72
2023/09/02 09:19:07;;;;;;;5.63;5.03;;;22.90;1.00;;;;;;5086110;28;20933;-73
2023/09/02 09:21:34;;;;;;;6.50;5.90;;;23.10;1.00;;;;;;5091900;28;20968;-72
2023/09/02 09:24:02;;;;;;;5.73;5.07;;;23.50;1.00;;;;;;5087952;28;20462;-71
2023/09/02 09:26:31;;;;;;;6.70;5.50;;;24.30;1.00;;;;;;5088331;28;20456;-71
2023/09/02 09:28:59;;;;;;;8.00;4.70;;;25.70;1.00;;;;;;5085712;28;20560;-73
2023/09/02 09:31:30;;;;;;;7.03;6.20;;;27.30;1.00;;;;;;5090058;28;20548;-72
2023/09/02 09:34:00;;;;;;;5.13;3.73;;;28.60;1.00;;;;;;5088435;28;20470;-72
2023/09/02 09:36:28;;;;;;;4.10;3.70;;;29.90;1.00;;;;;;5086082;28;20466;-73
2023/09/02 09:38:58;;;;;;;4.33;3.90;;;30.90;1.00;;;;;;5087076;28;20909;-73
2023/09/02 09:41:26;;;;;;;4.33;3.97;;;31.70;1.00;;;;;;5085728;28;20466;-74
2023/09/02 09:44:06;;;;;;;4.57;4.17;;;32.10;1.00;;;;;;5086828;28;20469;-73
2023/09/02 09:46:35;;;;;;;3.63;3.27;;;32.20;1.00;;;;;;5086573;28;20438;-74
2023/09/02 09:49:02;;;;;;;9.20;4.80;;;31.70;1.00;;;;;;5086825;28;20493;-71
2023/09/02 09:51:29;;;;;;;3.40;3.10;;;31.70;1.00;;;;;;5087854;28;20958;-72
2023/09/02 09:53:56;;;;;;;3.97;3.57;;;31.80;1.00;;;;;;5087977;28;20562;-71
2023/09/02 09:56:25;;;;;;;3.60;3.30;;;32.20;1.00;;;;;;5086715;28;20833;-72
2023/09/02 09:58:52;;;;;;;3.77;3.20;;;32.20;1.00;;;;;;5086846;28;20463;-73
2023/09/02 10:01:25;;;;;;;4.43;2.93;;;32.80;1.00;;;;;;5089564;28;20520;-72
2023/09/02 10:03:54;;;;;;;4.20;3.27;;;33.00;1.00;;;;;;5089222;28;20540;-71
2023/09/02 10:06:22;;;;;;;5.90;4.70;;;33.40;1.00;;;;;;5089478;28;20453;-72
2023/09/02 10:08:54;;;;;;;4.17;3.30;;;33.80;1.00;;;;;;5084656;28;20462;-72
2023/09/02 10:11:26;;;;;;;3.13;2.80;;;33.90;1.00;;;;;;5085438;28;20548;-73
2023/09/02 10:13:53;;;;;;;4.80;3.60;;;33.80;1.00;;;;;;5088387;28;20466;-73
2023/09/02 10:16:22;;;;;;;5.60;3.73;;;33.70;1.00;;;;;;5086131;28;20461;-72
2023/09/02 10:18:50;;;;;;;4.67;3.60;;;33.60;1.00;;;;;;5085052;28;20462;-75
2023/09/02 10:21:19;;;;;;;4.23;3.83;;;33.30;1.00;;;;;;5083530;28;20463;-73
2023/09/02 10:23:50;;;;;;;4.17;3.20;;;31.80;1.00;;;;;;5086949;28;20476;-72
2023/09/02 10:26:24;;;;;;;4.10;3.80;;;30.20;1.00;;;;;;5084563;28;20454;-72
2023/09/02 10:28:54;;;;;;;4.80;3.73;;;29.60;1.00;;;;;;5082908;28;20564;-72
2023/09/02 10:31:22;;;;;;;4.70;4.30;;;28.90;1.00;;;;;;5087525;28;20906;-75
2023/09/02 10:34:01;;;;;;;3.80;3.50;;;29.10;1.00;;;;;;5083878;28;20505;-73
2023/09/02 10:36:31;;;;;;;6.57;4.77;;;29.40;1.00;;;;;;5086470;28;20541;-73
2023/09/02 10:39:03;;;;;;;4.30;3.90;;;28.80;1.00;;;;;;5081922;28;20519;-71
2023/09/02 10:41:31;;;;;;;4.37;3.80;;;28.40;1.00;;;;;;5083592;28;21066;-72
2023/09/02 10:43:59;;;;;;;5.03;4.00;;;27.90;1.00;;;;;;5088437;28;21165;-75
2023/09/02 10:46:27;;;;;;;3.97;3.57;;;28.00;1.00;;;;;;5087383;28;20547;-72
2023/09/02 10:48:56;;;;;;;3.73;3.43;;;28.40;1.00;;;;;;5085272;28;20905;-73
2023/09/02 10:51:23;;;;;;;4.40;3.80;;;28.10;1.00;;;;;;5088203;28;20477;-76
2023/09/02 10:54:01;;;;;;;3.93;3.53;;;27.80;1.00;;;;;;5086597;28;20578;-72
2023/09/02 10:56:30;;;;;;;5.13;3.73;;;28.10;1.00;;;;;;5069788;28;20447;-73
2023/09/02 10:58:58;;;;;;;4.23;3.30;;;28.50;1.00;;;;;;5083508;28;20467;-74
2023/09/02 11:01:25;;;;;;;3.57;3.27;;;29.30;1.00;;;;;;5084519;28;20524;-73
2023/09/02 11:03:55;;;;;;;3.40;3.10;;;29.40;1.00;;;;;;5088105;28;20476;-72
2023/09/02 11:06:23;;;;;;;4.40;4.00;;;28.90;1.00;;;;;;5086521;28;20935;-73
2023/09/02 11:08:51;;;;;;;4.50;3.13;;;28.60;1.00;;;;;;5088826;28;20859;-73
2023/09/02 11:11:19;;;;;;;6.27;5.67;;;28.10;1.00;;;;;;5087652;28;20908;-73
2023/09/02 11:14:28;;;;;;;4.23;3.83;;;27.80;1.00;;;;;;5085192;28;20482;-73
2023/09/02 11:17:26;;;;;;;4.40;4.10;;;27.70;1.00;;;;;;5081412;28;20481;-72
2023/09/02 11:19:59;;;;;;;4.27;3.13;;;27.40;1.00;;;;;;5084907;28;20504;-73
2023/09/02 11:22:48;;;;;;;5.77;5.20;;;27.00;1.00;;;;;;5069418;28;20481;-74
2023/09/02 11:25:30;;;;;;;5.37;3.57;;;26.40;1.00;;;;;;5084996;28;20453;-72
2023/09/02 11:27:58;;;;;;;3.97;3.57;;;26.00;1.00;;;;;;5084353;28;20993;-72
2023/09/02 11:30:25;;;;;;;4.93;4.20;;;25.80;1.00;;;;;;5084156;28;20456;-72
2023/09/02 11:32:54;;;;;;;4.00;3.57;;;25.60;1.00;;;;;;5083580;28;20548;-70
2023/09/02 11:35:27;;;;;;;3.90;3.47;;;25.50;1.00;;;;;;5083853;28;20482;-70
2023/09/02 11:37:54;;;;;;;3.63;3.30;;;25.70;1.00;;;;;;5084901;27;20458;-71
2023/09/02 11:40:24;;;;;;;4.67;3.40;;;26.90;1.00;;;;;;5087899;28;20557;-72
2023/09/02 11:42:52;;;;;;;3.70;3.40;;;27.30;1.00;;;;;;5083430;28;20699;-73
2023/09/02 11:45:20;;;;;;;3.87;3.47;;;27.10;1.00;;;;;;5084680;28;22451;-70
2023/09/02 11:47:48;;;;;;;3.57;2.67;;;28.20;1.00;;;;;;5088453;28;20543;-72
2023/09/02 11:50:16;;;;;;;4.97;4.50;;;29.30;1.00;;;;;;5085467;28;20464;-71
2023/09/02 11:52:45;;;;;;;3.70;3.07;;;30.00;1.00;;;;;;5085371;28;20534;-72
2023/09/02 11:55:13;;;;;;;3.10;2.80;;;31.20;1.00;;;;;;5087881;28;20497;-70
2023/09/02 11:57:41;;;;;;;3.70;2.83;;;33.20;1.00;;;;;;5076214;28;21015;-70
2023/09/02 12:00:09;;;;;;;3.10;2.80;;;33.30;1.00;;;;;;5083345;28;21013;-74
2023/09/02 12:02:37;;;;;;;3.40;2.90;;;33.70;1.00;;;;;;5080969;28;20485;-70
2023/09/02 12:05:04;;;;;;;2.87;2.63;;;33.30;1.00;;;;;;5084251;28;20470;-71
2023/09/02 12:07:32;;;;;;;3.30;2.90;;;32.00;1.00;;;;;;5085378;28;20509;-71
2023/09/02 12:10:06;;;;;;;3.60;3.30;;;30.90;1.00;;;;;;5083234;28;20463;-70
2023/09/02 12:12:33;;;;;;;6.53;4.20;;;30.30;1.00;;;;;;5084271;28;20881;-71
2023/09/02 12:15:02;;;;;;;4.17;3.70;;;31.00;1.00;;;;;;5080424;28;20553;-70
2023/09/02 12:17:30;;;;;;;3.50;3.20;;;32.60;1.00;;;;;;5078625;28;20536;-71
2023/09/02 12:19:58;;;;;;;3.27;2.53;;;34.30;1.00;;;;;;5079838;28;20477;-72
2023/09/02 12:22:26;;;;;;;3.83;3.53;;;35.70;1.00;;;;;;5079972;28;20860;-72
2023/09/02 12:24:53;;;;;;;3.40;3.00;;;37.10;1.00;;;;;;5079121;28;20616;-69
2023/09/02 12:27:21;;;;;;;3.53;3.17;;;37.50;1.00;;;;;;5079575;28;20454;-71
2023/09/02 12:29:56;;;;;;;3.27;2.50;;;37.90;1.00;;;;;;5079763;28;20457;-75
2023/09/02 12:32:23;;;;;;;3.93;2.30;;;37.50;1.00;;;;;;5081200;28;20485;-76
2023/09/02 12:34:50;;;;;;;3.73;3.30;;;38.00;1.00;;;;;;5078714;28;20466;-72
2023/09/02 12:37:19;;;;;;;3.00;2.57;;;38.40;1.00;;;;;;5085958;28;20528;-71
2023/09/02 12:39:46;;;;;;;3.57;2.80;;;38.60;1.00;;;;;;5086938;28;20458;-72
2023/09/02 12:42:17;;;;;;;2.47;2.27;;;38.10;1.00;;;;;;5083188;28;21084;-71
2023/09/02 12:44:50;;;;;;;2.97;2.70;;;36.40;1.00;;;;;;5080796;28;20482;-74
2023/09/02 12:47:22;;;;;;;3.87;3.47;;;34.40;1.00;;;;;;5081983;28;20457;-74
2023/09/02 12:49:52;;;;;;;3.43;3.10;;;32.40;1.00;;;;;;5079954;28;20601;-72
2023/09/02 12:52:22;;;;;;;3.53;3.10;;;30.60;1.00;;;;;;5082784;28;20461;-71